sensor_id;sensor_type;location;lat;lon;timestamp;P1;durP1;ratioP1;P2;durP2;ratioP2
11964;SDS011;6042;41.326;19.826;2024-03-17T00:00:30;10.23;;;6.10;;
11964;SDS011;6042;41.326;19.826;2024-03-17T00:02:57;7.17;;;5.83;;
11964;SDS011;6042;41.326;19.826;2024-03-17T00:05:23;9.47;;;6.30;;
11964;SDS011;6042;41.326;19.826;2024-03-17T00:07:51;13.17;;;6.33;;
11964;SDS011;6042;41.326;19.826;2024-03-17T00:10:18;7.97;;;6.20;;
11964;SDS011;6042;41.326;19.826;2024-03-17T00:12:47;8.37;;;6.53;;
11964;SDS011;6042;41.326;19.826;2024-03-17T00:15:13;10.93;;;6.10;;
11964;SDS011;6042;41.326;19.826;2024-03-17T00:17:41;6.60;;;5.57;;
11964;SDS011;6042;41.326;19.826;2024-03-17T00:20:10;9.07;;;5.93;;
11964;SDS011;6042;41.326;19.826;2024-03-17T00:22:44;9.23;;;6.13;;
11964;SDS011;6042;41.326;19.826;2024-03-17T00:25:11;9.97;;;6.50;;
11964;SDS011;6042;41.326;19.826;2024-03-17T00:27:39;10.30;;;6.70;;
11964;SDS011;6042;41.326;19.826;2024-03-17T00:30:11;8.33;;;6.00;;
11964;SDS011;6042;41.326;19.826;2024-03-17T00:32:39;10.57;;;6.53;;
11964;SDS011;6042;41.326;19.826;2024-03-17T00:35:06;10.23;;;6.43;;
11964;SDS011;6042;41.326;19.826;2024-03-17T00:37:34;8.90;;;5.93;;
11964;SDS011;6042;41.326;19.826;2024-03-17T00:40:01;7.93;;;5.93;;
11964;SDS011;6042;41.326;19.826;2024-03-17T00:42:29;9.00;;;5.77;;
11964;SDS011;6042;41.326;19.826;2024-03-17T00:44:56;7.63;;;5.93;;
11964;SDS011;6042;41.326;19.826;2024-03-17T00:47:26;9.27;;;6.33;;
11964;SDS011;6042;41.326;19.826;2024-03-17T00:49:53;8.77;;;6.20;;
11964;SDS011;6042;41.326;19.826;2024-03-17T00:52:21;8.67;;;6.00;;
11964;SDS011;6042;41.326;19.826;2024-03-17T00:54:47;7.50;;;5.67;;
11964;SDS011;6042;41.326;19.826;2024-03-17T00:57:15;9.60;;;5.80;;
11964;SDS011;6042;41.326;19.826;2024-03-17T00:59:42;9.77;;;6.13;;
11964;SDS011;6042;41.326;19.826;2024-03-17T01:02:10;9.57;;;5.43;;
11964;SDS011;6042;41.326;19.826;2024-03-17T01:04:40;11.07;;;4.87;;
11964;SDS011;6042;41.326;19.826;2024-03-17T01:07:07;7.43;;;5.30;;
11964;SDS011;6042;41.326;19.826;2024-03-17T01:09:34;6.53;;;5.20;;
11964;SDS011;6042;41.326;19.826;2024-03-17T01:12:02;8.30;;;5.20;;
11964;SDS011;6042;41.326;19.826;2024-03-17T01:14:28;9.80;;;5.40;;
11964;SDS011;6042;41.326;19.826;2024-03-17T01:16:57;7.73;;;5.33;;
11964;SDS011;6042;41.326;19.826;2024-03-17T01:19:24;9.00;;;5.53;;
11964;SDS011;6042;41.326;19.826;2024-03-17T01:21:53;11.23;;;5.67;;
11964;SDS011;6042;41.326;19.826;2024-03-17T01:24:20;11.17;;;5.37;;
11964;SDS011;6042;41.326;19.826;2024-03-17T01:26:47;9.33;;;5.30;;
11964;SDS011;6042;41.326;19.826;2024-03-17T01:29:15;7.13;;;5.47;;
11964;SDS011;6042;41.326;19.826;2024-03-17T01:31:43;6.03;;;5.20;;
11964;SDS011;6042;41.326;19.826;2024-03-17T01:34:10;5.73;;;5.10;;
11964;SDS011;6042;41.326;19.826;2024-03-17T01:36:37;8.07;;;5.30;;
11964;SDS011;6042;41.326;19.826;2024-03-17T01:39:05;7.10;;;5.30;;
11964;SDS011;6042;41.326;19.826;2024-03-17T01:41:33;8.43;;;5.60;;
11964;SDS011;6042;41.326;19.826;2024-03-17T01:44:00;7.13;;;5.07;;
11964;SDS011;6042;41.326;19.826;2024-03-17T01:46:28;6.43;;;4.63;;
11964;SDS011;6042;41.326;19.826;2024-03-17T01:48:55;8.53;;;4.80;;
11964;SDS011;6042;41.326;19.826;2024-03-17T01:51:23;7.17;;;5.20;;
11964;SDS011;6042;41.326;19.826;2024-03-17T01:53:50;8.23;;;5.07;;
11964;SDS011;6042;41.326;19.826;2024-03-17T01:56:19;6.27;;;4.90;;
11964;SDS011;6042;41.326;19.826;2024-03-17T01:58:46;9.97;;;5.40;;
11964;SDS011;6042;41.326;19.826;2024-03-17T02:01:14;7.43;;;5.97;;
11964;SDS011;6042;41.326;19.826;2024-03-17T02:03:41;7.60;;;5.17;;
11964;SDS011;6042;41.326;19.826;2024-03-17T02:06:09;8.00;;;5.70;;
11964;SDS011;6042;41.326;19.826;2024-03-17T02:08:48;7.43;;;5.63;;
11964;SDS011;6042;41.326;19.826;2024-03-17T02:11:24;10.97;;;6.67;;
11964;SDS011;6042;41.326;19.826;2024-03-17T02:13:52;7.43;;;5.50;;
11964;SDS011;6042;41.326;19.826;2024-03-17T02:16:20;10.17;;;6.23;;
11964;SDS011;6042;41.326;19.826;2024-03-17T02:18:47;6.43;;;5.67;;
11964;SDS011;6042;41.326;19.826;2024-03-17T02:21:15;5.67;;;5.07;;
11964;SDS011;6042;41.326;19.826;2024-03-17T02:23:44;8.63;;;5.93;;
11964;SDS011;6042;41.326;19.826;2024-03-17T02:26:11;7.97;;;4.80;;
11964;SDS011;6042;41.326;19.826;2024-03-17T02:28:39;9.13;;;4.83;;
11964;SDS011;6042;41.326;19.826;2024-03-17T02:31:07;9.20;;;5.30;;
11964;SDS011;6042;41.326;19.826;2024-03-17T02:33:35;7.63;;;5.17;;
11964;SDS011;6042;41.326;19.826;2024-03-17T02:36:04;5.10;;;4.60;;
11964;SDS011;6042;41.326;19.826;2024-03-17T02:38:32;10.03;;;5.07;;
11964;SDS011;6042;41.326;19.826;2024-03-17T02:41:16;6.00;;;4.87;;
11964;SDS011;6042;41.326;19.826;2024-03-17T02:43:44;7.77;;;5.27;;
11964;SDS011;6042;41.326;19.826;2024-03-17T02:46:11;6.27;;;4.77;;
11964;SDS011;6042;41.326;19.826;2024-03-17T02:48:39;6.90;;;4.60;;
11964;SDS011;6042;41.326;19.826;2024-03-17T02:51:11;7.30;;;4.53;;
11964;SDS011;6042;41.326;19.826;2024-03-17T02:53:40;6.70;;;5.00;;
11964;SDS011;6042;41.326;19.826;2024-03-17T02:56:09;8.57;;;5.10;;
11964;SDS011;6042;41.326;19.826;2024-03-17T02:58:38;7.07;;;4.60;;
11964;SDS011;6042;41.326;19.826;2024-03-17T03:01:07;6.20;;;5.03;;
11964;SDS011;6042;41.326;19.826;2024-03-17T03:03:35;4.97;;;4.20;;
11964;SDS011;6042;41.326;19.826;2024-03-17T03:06:03;6.13;;;4.47;;
11964;SDS011;6042;41.326;19.826;2024-03-17T03:08:34;6.60;;;5.10;;
11964;SDS011;6042;41.326;19.826;2024-03-17T03:11:04;5.63;;;4.13;;
11964;SDS011;6042;41.326;19.826;2024-03-17T03:13:33;6.63;;;4.40;;
11964;SDS011;6042;41.326;19.826;2024-03-17T03:16:02;4.70;;;4.30;;
11964;SDS011;6042;41.326;19.826;2024-03-17T03:18:29;5.37;;;4.87;;
11964;SDS011;6042;41.326;19.826;2024-03-17T03:20:57;8.27;;;4.33;;
11964;SDS011;6042;41.326;19.826;2024-03-17T03:23:24;5.50;;;4.40;;
11964;SDS011;6042;41.326;19.826;2024-03-17T03:25:54;6.43;;;4.00;;
11964;SDS011;6042;41.326;19.826;2024-03-17T03:28:23;4.17;;;3.63;;
11964;SDS011;6042;41.326;19.826;2024-03-17T03:30:51;5.07;;;4.30;;
11964;SDS011;6042;41.326;19.826;2024-03-17T03:33:20;5.60;;;3.93;;
11964;SDS011;6042;41.326;19.826;2024-03-17T03:35:48;5.93;;;3.90;;
11964;SDS011;6042;41.326;19.826;2024-03-17T03:38:16;4.50;;;4.00;;
11964;SDS011;6042;41.326;19.826;2024-03-17T03:40:44;4.73;;;3.33;;
11964;SDS011;6042;41.326;19.826;2024-03-17T03:43:13;4.17;;;3.40;;
11964;SDS011;6042;41.326;19.826;2024-03-17T03:45:41;3.60;;;3.30;;
11964;SDS011;6042;41.326;19.826;2024-03-17T03:48:08;5.67;;;3.90;;
11964;SDS011;6042;41.326;19.826;2024-03-17T03:50:38;5.47;;;4.00;;
11964;SDS011;6042;41.326;19.826;2024-03-17T03:53:06;5.70;;;3.63;;
11964;SDS011;6042;41.326;19.826;2024-03-17T03:55:34;3.83;;;3.17;;
11964;SDS011;6042;41.326;19.826;2024-03-17T03:58:01;7.73;;;3.40;;
11964;SDS011;6042;41.326;19.826;2024-03-17T04:00:30;8.17;;;3.53;;
11964;SDS011;6042;41.326;19.826;2024-03-17T04:02:58;5.80;;;3.60;;
11964;SDS011;6042;41.326;19.826;2024-03-17T04:05:27;4.07;;;3.10;;
11964;SDS011;6042;41.326;19.826;2024-03-17T04:07:57;5.87;;;3.40;;
11964;SDS011;6042;41.326;19.826;2024-03-17T04:10:25;3.50;;;3.20;;
11964;SDS011;6042;41.326;19.826;2024-03-17T04:12:53;3.83;;;2.93;;
11964;SDS011;6042;41.326;19.826;2024-03-17T04:15:20;5.73;;;3.20;;
11964;SDS011;6042;41.326;19.826;2024-03-17T04:17:48;4.77;;;3.37;;
11964;SDS011;6042;41.326;19.826;2024-03-17T04:20:15;3.70;;;3.37;;
11964;SDS011;6042;41.326;19.826;2024-03-17T04:22:43;3.80;;;3.40;;
11964;SDS011;6042;41.326;19.826;2024-03-17T04:25:12;5.40;;;3.87;;
11964;SDS011;6042;41.326;19.826;2024-03-17T04:27:39;4.77;;;3.60;;
11964;SDS011;6042;41.326;19.826;2024-03-17T04:30:07;6.37;;;4.00;;
11964;SDS011;6042;41.326;19.826;2024-03-17T04:32:37;6.00;;;3.30;;
11964;SDS011;6042;41.326;19.826;2024-03-17T04:35:06;3.73;;;3.43;;
11964;SDS011;6042;41.326;19.826;2024-03-17T04:37:34;7.40;;;4.00;;
11964;SDS011;6042;41.326;19.826;2024-03-17T04:40:05;4.27;;;3.87;;
11964;SDS011;6042;41.326;19.826;2024-03-17T04:42:37;4.67;;;3.30;;
11964;SDS011;6042;41.326;19.826;2024-03-17T04:45:06;4.77;;;3.63;;
11964;SDS011;6042;41.326;19.826;2024-03-17T04:47:36;4.30;;;3.30;;
11964;SDS011;6042;41.326;19.826;2024-03-17T04:50:04;4.07;;;3.30;;
11964;SDS011;6042;41.326;19.826;2024-03-17T04:52:32;7.57;;;3.77;;
11964;SDS011;6042;41.326;19.826;2024-03-17T04:55:00;4.83;;;3.77;;
11964;SDS011;6042;41.326;19.826;2024-03-17T04:57:29;5.43;;;3.73;;
11964;SDS011;6042;41.326;19.826;2024-03-17T04:59:58;4.83;;;3.67;;
11964;SDS011;6042;41.326;19.826;2024-03-17T05:02:26;4.47;;;3.47;;
11964;SDS011;6042;41.326;19.826;2024-03-17T05:04:53;4.43;;;3.63;;
11964;SDS011;6042;41.326;19.826;2024-03-17T05:07:22;4.10;;;3.40;;
11964;SDS011;6042;41.326;19.826;2024-03-17T05:09:49;4.03;;;3.60;;
11964;SDS011;6042;41.326;19.826;2024-03-17T05:12:17;7.80;;;3.93;;
11964;SDS011;6042;41.326;19.826;2024-03-17T05:14:45;6.10;;;3.70;;
11964;SDS011;6042;41.326;19.826;2024-03-17T05:17:16;6.57;;;3.90;;
11964;SDS011;6042;41.326;19.826;2024-03-17T05:19:43;4.27;;;3.87;;
11964;SDS011;6042;41.326;19.826;2024-03-17T05:22:11;3.93;;;3.53;;
11964;SDS011;6042;41.326;19.826;2024-03-17T05:24:38;4.97;;;3.60;;
11964;SDS011;6042;41.326;19.826;2024-03-17T05:27:06;5.80;;;3.57;;
11964;SDS011;6042;41.326;19.826;2024-03-17T05:29:34;4.10;;;3.70;;
11964;SDS011;6042;41.326;19.826;2024-03-17T05:32:03;7.27;;;3.97;;
11964;SDS011;6042;41.326;19.826;2024-03-17T05:34:32;8.03;;;4.27;;
11964;SDS011;6042;41.326;19.826;2024-03-17T05:37:00;6.77;;;3.70;;
11964;SDS011;6042;41.326;19.826;2024-03-17T05:39:27;6.70;;;4.00;;
11964;SDS011;6042;41.326;19.826;2024-03-17T05:41:55;6.17;;;4.23;;
11964;SDS011;6042;41.326;19.826;2024-03-17T05:44:22;5.83;;;3.67;;
11964;SDS011;6042;41.326;19.826;2024-03-17T05:46:50;4.23;;;3.40;;
11964;SDS011;6042;41.326;19.826;2024-03-17T05:49:19;5.10;;;3.63;;
11964;SDS011;6042;41.326;19.826;2024-03-17T05:51:48;4.67;;;3.60;;
11964;SDS011;6042;41.326;19.826;2024-03-17T05:54:15;5.60;;;3.43;;
11964;SDS011;6042;41.326;19.826;2024-03-17T05:56:43;4.27;;;3.30;;
11964;SDS011;6042;41.326;19.826;2024-03-17T05:59:10;3.57;;;3.27;;
11964;SDS011;6042;41.326;19.826;2024-03-17T06:01:38;7.27;;;3.60;;
11964;SDS011;6042;41.326;19.826;2024-03-17T06:04:05;7.40;;;3.60;;
11964;SDS011;6042;41.326;19.826;2024-03-17T06:06:36;6.30;;;3.70;;
11964;SDS011;6042;41.326;19.826;2024-03-17T06:09:05;6.10;;;3.57;;
11964;SDS011;6042;41.326;19.826;2024-03-17T06:11:34;5.50;;;3.70;;
11964;SDS011;6042;41.326;19.826;2024-03-17T06:14:02;5.60;;;3.43;;
11964;SDS011;6042;41.326;19.826;2024-03-17T06:16:31;5.57;;;3.63;;
11964;SDS011;6042;41.326;19.826;2024-03-17T06:18:59;4.63;;;3.87;;
11964;SDS011;6042;41.326;19.826;2024-03-17T06:21:26;5.67;;;3.47;;
11964;SDS011;6042;41.326;19.826;2024-03-17T06:23:54;4.10;;;3.20;;
11964;SDS011;6042;41.326;19.826;2024-03-17T06:26:23;3.80;;;3.40;;
11964;SDS011;6042;41.326;19.826;2024-03-17T06:28:52;4.00;;;3.40;;
11964;SDS011;6042;41.326;19.826;2024-03-17T06:31:20;7.73;;;4.30;;
11964;SDS011;6042;41.326;19.826;2024-03-17T06:33:47;14.83;;;5.03;;
11964;SDS011;6042;41.326;19.826;2024-03-17T06:36:15;8.77;;;3.83;;
11964;SDS011;6042;41.326;19.826;2024-03-17T06:38:43;4.10;;;3.67;;
11964;SDS011;6042;41.326;19.826;2024-03-17T06:41:11;8.07;;;3.20;;
11964;SDS011;6042;41.326;19.826;2024-03-17T06:43:41;4.33;;;3.00;;
11964;SDS011;6042;41.326;19.826;2024-03-17T06:46:10;6.10;;;3.23;;
11964;SDS011;6042;41.326;19.826;2024-03-17T06:48:37;11.80;;;3.80;;
11964;SDS011;6042;41.326;19.826;2024-03-17T06:51:05;5.80;;;2.93;;
11964;SDS011;6042;41.326;19.826;2024-03-17T06:53:33;7.00;;;3.63;;
11964;SDS011;6042;41.326;19.826;2024-03-17T06:56:00;5.30;;;4.27;;
11964;SDS011;6042;41.326;19.826;2024-03-17T06:58:28;7.37;;;4.00;;
11964;SDS011;6042;41.326;19.826;2024-03-17T07:00:57;5.00;;;4.13;;
11964;SDS011;6042;41.326;19.826;2024-03-17T07:03:26;5.03;;;4.30;;
11964;SDS011;6042;41.326;19.826;2024-03-17T07:05:55;5.70;;;4.63;;
11964;SDS011;6042;41.326;19.826;2024-03-17T07:08:23;5.43;;;4.47;;
11964;SDS011;6042;41.326;19.826;2024-03-17T07:10:58;6.10;;;5.17;;
11964;SDS011;6042;41.326;19.826;2024-03-17T07:13:29;9.87;;;5.00;;
11964;SDS011;6042;41.326;19.826;2024-03-17T07:15:59;6.17;;;4.80;;
11964;SDS011;6042;41.326;19.826;2024-03-17T07:18:27;7.37;;;5.03;;
11964;SDS011;6042;41.326;19.826;2024-03-17T07:20:58;8.50;;;5.00;;
11964;SDS011;6042;41.326;19.826;2024-03-17T07:23:28;8.10;;;5.20;;
11964;SDS011;6042;41.326;19.826;2024-03-17T07:25:59;6.63;;;5.00;;
11964;SDS011;6042;41.326;19.826;2024-03-17T07:28:30;11.70;;;5.00;;
11964;SDS011;6042;41.326;19.826;2024-03-17T07:31:00;5.73;;;4.83;;
11964;SDS011;6042;41.326;19.826;2024-03-17T07:33:27;5.00;;;4.23;;
11964;SDS011;6042;41.326;19.826;2024-03-17T07:35:55;5.40;;;4.60;;
11964;SDS011;6042;41.326;19.826;2024-03-17T07:38:26;9.73;;;4.50;;
11964;SDS011;6042;41.326;19.826;2024-03-17T07:40:55;5.60;;;4.57;;
11964;SDS011;6042;41.326;19.826;2024-03-17T07:43:24;7.37;;;5.10;;
11964;SDS011;6042;41.326;19.826;2024-03-17T07:46:02;8.70;;;5.70;;
11964;SDS011;6042;41.326;19.826;2024-03-17T07:48:31;7.97;;;5.50;;
11964;SDS011;6042;41.326;19.826;2024-03-17T07:51:00;10.00;;;6.07;;
11964;SDS011;6042;41.326;19.826;2024-03-17T07:53:29;7.07;;;6.07;;
11964;SDS011;6042;41.326;19.826;2024-03-17T07:55:57;8.67;;;6.03;;
11964;SDS011;6042;41.326;19.826;2024-03-17T07:58:25;8.03;;;5.80;;
11964;SDS011;6042;41.326;19.826;2024-03-17T08:00:56;7.03;;;5.70;;
11964;SDS011;6042;41.326;19.826;2024-03-17T08:03:27;6.93;;;5.97;;
11964;SDS011;6042;41.326;19.826;2024-03-17T08:05:59;10.07;;;6.20;;
11964;SDS011;6042;41.326;19.826;2024-03-17T08:08:28;7.40;;;6.07;;
11964;SDS011;6042;41.326;19.826;2024-03-17T08:10:56;9.20;;;6.37;;
11964;SDS011;6042;41.326;19.826;2024-03-17T08:13:24;7.70;;;5.93;;
11964;SDS011;6042;41.326;19.826;2024-03-17T08:15:56;7.00;;;6.13;;
11964;SDS011;6042;41.326;19.826;2024-03-17T08:18:25;8.23;;;5.90;;
11964;SDS011;6042;41.326;19.826;2024-03-17T08:20:55;6.53;;;5.80;;
11964;SDS011;6042;41.326;19.826;2024-03-17T08:23:22;7.83;;;5.63;;
11964;SDS011;6042;41.326;19.826;2024-03-17T08:25:54;9.57;;;5.83;;
11964;SDS011;6042;41.326;19.826;2024-03-17T08:28:22;6.60;;;5.03;;
11964;SDS011;6042;41.326;19.826;2024-03-17T08:30:50;5.37;;;4.40;;
11964;SDS011;6042;41.326;19.826;2024-03-17T08:33:19;6.70;;;4.43;;
11964;SDS011;6042;41.326;19.826;2024-03-17T08:35:55;8.53;;;4.57;;
11964;SDS011;6042;41.326;19.826;2024-03-17T08:38:23;5.70;;;3.90;;
11964;SDS011;6042;41.326;19.826;2024-03-17T08:40:51;4.20;;;3.77;;
11964;SDS011;6042;41.326;19.826;2024-03-17T08:43:19;3.20;;;2.93;;
11964;SDS011;6042;41.326;19.826;2024-03-17T08:45:54;3.23;;;2.93;;
11964;SDS011;6042;41.326;19.826;2024-03-17T08:48:25;3.70;;;3.07;;
11964;SDS011;6042;41.326;19.826;2024-03-17T08:50:55;4.33;;;3.03;;
11964;SDS011;6042;41.326;19.826;2024-03-17T08:53:23;4.50;;;3.00;;
11964;SDS011;6042;41.326;19.826;2024-03-17T08:55:52;3.60;;;2.87;;
11964;SDS011;6042;41.326;19.826;2024-03-17T08:58:20;3.57;;;3.13;;
11964;SDS011;6042;41.326;19.826;2024-03-17T09:00:47;4.00;;;3.00;;
11964;SDS011;6042;41.326;19.826;2024-03-17T09:03:16;4.27;;;3.03;;
11964;SDS011;6042;41.326;19.826;2024-03-17T09:05:45;4.40;;;3.07;;
11964;SDS011;6042;41.326;19.826;2024-03-17T09:08:16;3.53;;;2.87;;
11964;SDS011;6042;41.326;19.826;2024-03-17T09:10:46;3.37;;;3.03;;
11964;SDS011;6042;41.326;19.826;2024-03-17T09:13:14;3.53;;;3.23;;
11964;SDS011;6042;41.326;19.826;2024-03-17T09:15:49;4.63;;;3.37;;
11964;SDS011;6042;41.326;19.826;2024-03-17T09:18:20;4.07;;;3.70;;
11964;SDS011;6042;41.326;19.826;2024-03-17T09:20:57;5.07;;;3.97;;
11964;SDS011;6042;41.326;19.826;2024-03-17T09:23:27;5.40;;;3.80;;
11964;SDS011;6042;41.326;19.826;2024-03-17T09:25:56;4.27;;;3.70;;
11964;SDS011;6042;41.326;19.826;2024-03-17T09:31:17;4.77;;;4.27;;
11964;SDS011;6042;41.326;19.826;2024-03-17T09:33:45;5.13;;;3.83;;
11964;SDS011;6042;41.326;19.826;2024-03-17T09:36:13;7.83;;;4.40;;
11964;SDS011;6042;41.326;19.826;2024-03-17T09:38:41;5.03;;;3.97;;
11964;SDS011;6042;41.326;19.826;2024-03-17T09:41:14;6.43;;;4.90;;
11964;SDS011;6042;41.326;19.826;2024-03-17T09:43:47;7.70;;;4.50;;
11964;SDS011;6042;41.326;19.826;2024-03-17T09:46:15;4.50;;;4.10;;
11964;SDS011;6042;41.326;19.826;2024-03-17T09:48:45;5.50;;;4.10;;
11964;SDS011;6042;41.326;19.826;2024-03-17T09:51:16;4.40;;;3.80;;
11964;SDS011;6042;41.326;19.826;2024-03-17T09:53:48;5.00;;;4.20;;
11964;SDS011;6042;41.326;19.826;2024-03-17T09:56:16;3.40;;;3.10;;
11964;SDS011;6042;41.326;19.826;2024-03-17T09:58:45;5.27;;;3.50;;
11964;SDS011;6042;41.326;19.826;2024-03-17T10:01:13;4.53;;;3.60;;
11964;SDS011;6042;41.326;19.826;2024-03-17T10:03:42;4.00;;;3.57;;
11964;SDS011;6042;41.326;19.826;2024-03-17T10:06:11;4.87;;;3.27;;
11964;SDS011;6042;41.326;19.826;2024-03-17T10:08:40;4.67;;;3.23;;
11964;SDS011;6042;41.326;19.826;2024-03-17T10:11:10;5.77;;;2.90;;
11964;SDS011;6042;41.326;19.826;2024-03-17T10:13:38;4.27;;;3.60;;
11964;SDS011;6042;41.326;19.826;2024-03-17T10:16:06;5.93;;;4.17;;
11964;SDS011;6042;41.326;19.826;2024-03-17T10:18:45;6.53;;;4.40;;
11964;SDS011;6042;41.326;19.826;2024-03-17T10:21:19;5.53;;;3.40;;
11964;SDS011;6042;41.326;19.826;2024-03-17T10:24:02;6.10;;;3.10;;
11964;SDS011;6042;41.326;19.826;2024-03-17T10:26:35;6.77;;;3.60;;
11964;SDS011;6042;41.326;19.826;2024-03-17T10:29:04;4.53;;;3.73;;
11964;SDS011;6042;41.326;19.826;2024-03-17T10:31:42;5.07;;;3.53;;
11964;SDS011;6042;41.326;19.826;2024-03-17T10:34:10;7.07;;;3.90;;
11964;SDS011;6042;41.326;19.826;2024-03-17T10:36:44;4.20;;;3.80;;
11964;SDS011;6042;41.326;19.826;2024-03-17T10:39:22;5.77;;;3.47;;
11964;SDS011;6042;41.326;19.826;2024-03-17T10:42:00;5.10;;;3.90;;
11964;SDS011;6042;41.326;19.826;2024-03-17T10:44:28;4.07;;;3.67;;
11964;SDS011;6042;41.326;19.826;2024-03-17T10:46:56;3.73;;;3.33;;
11964;SDS011;6042;41.326;19.826;2024-03-17T10:49:27;4.03;;;3.10;;
11964;SDS011;6042;41.326;19.826;2024-03-17T10:51:59;3.50;;;3.20;;
11964;SDS011;6042;41.326;19.826;2024-03-17T10:54:28;3.77;;;3.40;;
11964;SDS011;6042;41.326;19.826;2024-03-17T10:56:56;5.47;;;3.50;;
11964;SDS011;6042;41.326;19.826;2024-03-17T10:59:45;4.50;;;3.20;;
11964;SDS011;6042;41.326;19.826;2024-03-17T11:02:17;6.13;;;3.80;;
11964;SDS011;6042;41.326;19.826;2024-03-17T11:04:51;7.63;;;3.93;;
11964;SDS011;6042;41.326;19.826;2024-03-17T11:07:21;5.53;;;4.80;;
11964;SDS011;6042;41.326;19.826;2024-03-17T11:09:50;7.50;;;5.00;;
11964;SDS011;6042;41.326;19.826;2024-03-17T11:18:31;10.33;;;4.90;;
11964;SDS011;6042;41.326;19.826;2024-03-17T11:21:03;5.83;;;4.50;;
11964;SDS011;6042;41.326;19.826;2024-03-17T11:23:54;4.67;;;3.20;;
11964;SDS011;6042;41.326;19.826;2024-03-17T11:26:31;4.33;;;3.30;;
11964;SDS011;6042;41.326;19.826;2024-03-17T11:29:02;3.37;;;3.07;;
11964;SDS011;6042;41.326;19.826;2024-03-17T11:31:33;4.00;;;3.17;;
11964;SDS011;6042;41.326;19.826;2024-03-17T11:37:07;7.17;;;3.10;;
11964;SDS011;6042;41.326;19.826;2024-03-17T11:40:22;3.10;;;2.83;;
11964;SDS011;6042;41.326;19.826;2024-03-17T11:43:00;3.73;;;2.43;;
11964;SDS011;6042;41.326;19.826;2024-03-17T11:45:28;4.70;;;3.00;;
11964;SDS011;6042;41.326;19.826;2024-03-17T11:47:56;4.83;;;2.87;;
11964;SDS011;6042;41.326;19.826;2024-03-17T11:50:23;5.30;;;3.30;;
11964;SDS011;6042;41.326;19.826;2024-03-17T11:52:59;2.50;;;2.30;;
11964;SDS011;6042;41.326;19.826;2024-03-17T11:55:26;4.53;;;2.97;;
11964;SDS011;6042;41.326;19.826;2024-03-17T11:57:55;3.77;;;3.47;;
11964;SDS011;6042;41.326;19.826;2024-03-17T12:00:23;3.43;;;2.80;;
11964;SDS011;6042;41.326;19.826;2024-03-17T12:02:52;4.20;;;3.13;;
11964;SDS011;6042;41.326;19.826;2024-03-17T12:05:19;5.97;;;3.37;;
11964;SDS011;6042;41.326;19.826;2024-03-17T12:07:47;5.00;;;3.33;;
11964;SDS011;6042;41.326;19.826;2024-03-17T12:10:15;4.50;;;3.63;;
11964;SDS011;6042;41.326;19.826;2024-03-17T12:12:46;4.63;;;3.80;;
11964;SDS011;6042;41.326;19.826;2024-03-17T12:15:17;4.57;;;4.17;;
11964;SDS011;6042;41.326;19.826;2024-03-17T12:17:53;4.53;;;3.70;;
11964;SDS011;6042;41.326;19.826;2024-03-17T12:20:24;8.17;;;7.37;;
11964;SDS011;6042;41.326;19.826;2024-03-17T12:22:54;5.17;;;4.67;;
11964;SDS011;6042;41.326;19.826;2024-03-17T12:25:22;3.33;;;3.03;;
11964;SDS011;6042;41.326;19.826;2024-03-17T12:27:52;3.87;;;3.20;;
11964;SDS011;6042;41.326;19.826;2024-03-17T12:30:19;3.10;;;2.80;;
11964;SDS011;6042;41.326;19.826;2024-03-17T12:32:46;2.93;;;2.70;;
11964;SDS011;6042;41.326;19.826;2024-03-17T12:35:18;4.33;;;3.00;;
11964;SDS011;6042;41.326;19.826;2024-03-17T12:37:45;3.77;;;3.20;;
11964;SDS011;6042;41.326;19.826;2024-03-17T12:40:20;4.57;;;3.80;;
11964;SDS011;6042;41.326;19.826;2024-03-17T12:42:48;6.27;;;3.43;;
11964;SDS011;6042;41.326;19.826;2024-03-17T12:45:20;5.73;;;4.03;;
11964;SDS011;6042;41.326;19.826;2024-03-17T12:47:47;6.23;;;3.60;;
11964;SDS011;6042;41.326;19.826;2024-03-17T12:50:19;7.67;;;3.80;;
11964;SDS011;6042;41.326;19.826;2024-03-17T12:52:54;4.50;;;4.10;;
11964;SDS011;6042;41.326;19.826;2024-03-17T12:55:22;4.87;;;4.07;;
11964;SDS011;6042;41.326;19.826;2024-03-17T12:58:07;9.37;;;3.97;;
11964;SDS011;6042;41.326;19.826;2024-03-17T13:00:56;5.67;;;3.50;;
11964;SDS011;6042;41.326;19.826;2024-03-17T13:03:26;5.37;;;3.40;;
11964;SDS011;6042;41.326;19.826;2024-03-17T13:05:56;4.10;;;3.03;;
11964;SDS011;6042;41.326;19.826;2024-03-17T13:08:23;4.73;;;3.10;;
11964;SDS011;6042;41.326;19.826;2024-03-17T13:10:50;3.37;;;3.03;;
11964;SDS011;6042;41.326;19.826;2024-03-17T13:13:18;4.23;;;2.87;;
11964;SDS011;6042;41.326;19.826;2024-03-17T13:15:45;4.07;;;3.03;;
11964;SDS011;6042;41.326;19.826;2024-03-17T13:18:15;7.47;;;3.50;;
11964;SDS011;6042;41.326;19.826;2024-03-17T13:20:49;5.00;;;3.50;;
11964;SDS011;6042;41.326;19.826;2024-03-17T13:23:18;4.23;;;2.80;;
11964;SDS011;6042;41.326;19.826;2024-03-17T13:25:47;3.30;;;3.00;;
11964;SDS011;6042;41.326;19.826;2024-03-17T13:28:14;3.00;;;2.80;;
11964;SDS011;6042;41.326;19.826;2024-03-17T13:30:42;2.90;;;2.70;;
11964;SDS011;6042;41.326;19.826;2024-03-17T13:33:09;5.27;;;2.50;;
11964;SDS011;6042;41.326;19.826;2024-03-17T13:35:38;4.17;;;3.20;;
11964;SDS011;6042;41.326;19.826;2024-03-17T13:38:06;3.17;;;2.30;;
11964;SDS011;6042;41.326;19.826;2024-03-17T13:40:37;2.90;;;2.70;;
11964;SDS011;6042;41.326;19.826;2024-03-17T13:43:08;5.10;;;2.80;;
11964;SDS011;6042;41.326;19.826;2024-03-17T13:45:38;3.17;;;2.73;;
11964;SDS011;6042;41.326;19.826;2024-03-17T13:48:07;5.60;;;2.77;;
11964;SDS011;6042;41.326;19.826;2024-03-17T13:50:36;3.13;;;2.70;;
11964;SDS011;6042;41.326;19.826;2024-03-17T13:53:04;3.93;;;3.03;;
11964;SDS011;6042;41.326;19.826;2024-03-17T13:55:32;2.90;;;2.70;;
11964;SDS011;6042;41.326;19.826;2024-03-17T13:58:02;3.50;;;2.80;;
11964;SDS011;6042;41.326;19.826;2024-03-17T14:00:30;3.20;;;2.90;;
11964;SDS011;6042;41.326;19.826;2024-03-17T14:03:02;4.27;;;2.90;;
11964;SDS011;6042;41.326;19.826;2024-03-17T14:05:30;3.30;;;2.60;;
11964;SDS011;6042;41.326;19.826;2024-03-17T14:08:03;3.10;;;2.90;;
11964;SDS011;6042;41.326;19.826;2024-03-17T14:10:33;3.90;;;2.60;;
11964;SDS011;6042;41.326;19.826;2024-03-17T14:13:02;2.97;;;2.67;;
11964;SDS011;6042;41.326;19.826;2024-03-17T14:15:30;2.80;;;2.60;;
11964;SDS011;6042;41.326;19.826;2024-03-17T14:17:58;3.63;;;2.30;;
11964;SDS011;6042;41.326;19.826;2024-03-17T14:20:25;4.27;;;2.67;;
11964;SDS011;6042;41.326;19.826;2024-03-17T14:22:52;4.17;;;2.77;;
11964;SDS011;6042;41.326;19.826;2024-03-17T14:25:22;2.83;;;2.53;;
11964;SDS011;6042;41.326;19.826;2024-03-17T14:27:52;2.87;;;2.50;;
11964;SDS011;6042;41.326;19.826;2024-03-17T14:30:21;3.77;;;2.50;;
11964;SDS011;6042;41.326;19.826;2024-03-17T14:32:48;3.53;;;2.57;;
11964;SDS011;6042;41.326;19.826;2024-03-17T14:35:16;8.00;;;2.70;;
11964;SDS011;6042;41.326;19.826;2024-03-17T14:37:46;4.20;;;2.63;;
11964;SDS011;6042;41.326;19.826;2024-03-17T14:40:14;4.40;;;2.73;;
11964;SDS011;6042;41.326;19.826;2024-03-17T14:42:47;3.53;;;2.80;;
11964;SDS011;6042;41.326;19.826;2024-03-17T14:45:15;4.03;;;2.57;;
11964;SDS011;6042;41.326;19.826;2024-03-17T14:47:44;3.00;;;2.70;;
11964;SDS011;6042;41.326;19.826;2024-03-17T14:50:12;4.00;;;2.90;;
11964;SDS011;6042;41.326;19.826;2024-03-17T14:52:42;4.40;;;3.00;;
11964;SDS011;6042;41.326;19.826;2024-03-17T14:55:12;6.17;;;3.03;;
11964;SDS011;6042;41.326;19.826;2024-03-17T14:57:40;4.63;;;2.90;;
11964;SDS011;6042;41.326;19.826;2024-03-17T15:00:08;3.40;;;2.73;;
11964;SDS011;6042;41.326;19.826;2024-03-17T15:02:41;3.90;;;2.67;;
11964;SDS011;6042;41.326;19.826;2024-03-17T15:05:14;3.67;;;2.40;;
11964;SDS011;6042;41.326;19.826;2024-03-17T15:07:43;5.50;;;3.00;;
11964;SDS011;6042;41.326;19.826;2024-03-17T15:10:11;3.90;;;2.87;;
11964;SDS011;6042;41.326;19.826;2024-03-17T15:12:38;3.67;;;2.90;;